Time;durP1;ratioP1;P1;durP2;ratioP2;P2;SDS_P1;SDS_P2;PMS_P1;PMS_P2;Temp;Humidity;BMP_temperature;BMP_pressure;BME280_temperature;BME280_humidity;BME280_pressure;Samples;Min_cycle;Max_cycle;Signal;HPM_P1;HPM_P2
2022/01/26 00:00:07;;;;;;;2.30;1.27;;;;;;;-1.86;47.63;99953.59;5078136;28;20528;-95
2022/01/26 00:08:05;;;;;;;1.67;1.50;;;;;;;-2.13;47.78;99956.75;5077496;28;20453;-94
2022/01/26 00:10:30;;;;;;;3.20;2.43;;;;;;;-2.28;48.08;99953.97;5076073;28;20407;-94
2022/01/26 00:12:56;;;;;;;4.93;1.83;;;;;;;-2.13;47.77;99959.31;5076157;28;20584;-95
2022/01/26 00:15:21;;;;;;;3.83;2.17;;;;;;;-2.23;47.94;99959.19;5076034;28;20228;-94
2022/01/26 00:17:50;;;;;;;1.40;1.30;;;;;;;-2.13;47.76;99949.03;5075689;28;20173;-94
2022/01/26 00:20:24;;;;;;;2.00;1.80;;;;;;;-2.10;47.63;99946.50;5075549;28;20230;-92
2022/01/26 00:28:09;;;;;;;4.53;3.10;;;;;;;-2.10;47.60;99945.66;5076633;28;20602;-95
2022/01/26 00:38:49;;;;;;;35.10;3.40;;;;;;;-2.32;48.18;99949.66;5076862;28;20841;-95
2022/01/26 00:41:22;;;;;;;3.23;2.13;;;;;;;-2.14;47.82;99937.03;5075228;28;20439;-94
2022/01/26 00:43:54;;;;;;;3.00;2.10;;;;;;;-2.20;48.07;99934.41;5075435;28;20419;-95
2022/01/26 00:46:21;;;;;;;3.60;2.23;;;;;;;-2.28;48.09;99933.44;5075147;28;20408;-95
2022/01/26 00:48:49;;;;;;;2.93;2.00;;;;;;;-2.43;48.45;99940.97;5075056;28;20473;-94
2022/01/26 00:51:20;;;;;;;4.87;3.07;;;;;;;-2.42;48.85;99940.16;5075490;28;20922;-95
2022/01/26 00:53:55;;;;;;;1.80;1.63;;;;;;;-2.10;48.17;99933.69;5074988;28;20490;-94
2022/01/26 00:56:21;;;;;;;2.53;2.33;;;;;;;-2.39;48.36;99935.06;5074916;28;20431;-94
2022/01/26 00:58:47;;;;;;;2.37;1.67;;;;;;;-2.22;48.28;99930.94;5074399;28;20446;-95
2022/01/26 01:01:13;;;;;;;2.47;1.63;;;;;;;-2.28;48.29;99922.34;5074917;28;20645;-94
2022/01/26 01:03:43;;;;;;;4.40;1.87;;;;;;;-2.36;48.97;99919.69;5074849;28;20260;-95
2022/01/26 01:06:22;;;;;;;4.23;2.77;;;;;;;-2.19;48.40;99919.84;5075038;28;20408;-94
2022/01/26 01:08:48;;;;;;;1.33;1.20;;;;;;;-2.23;48.41;99905.28;5075510;28;20440;-95
2022/01/26 01:11:14;;;;;;;4.40;2.77;;;;;;;-2.09;47.79;99906.25;5074724;28;20484;-95
2022/01/26 01:13:41;;;;;;;10.20;2.87;;;;;;;-1.98;47.84;99907.22;5074942;28;20243;-96
2022/01/26 01:16:10;;;;;;;6.23;3.30;;;;;;;-2.04;48.04;99905.47;5075334;28;20423;-95
2022/01/26 01:31:53;;;;;;;3.03;2.77;;;;;;;-1.63;47.25;99874.16;5075133;28;20158;-95
2022/01/26 01:34:38;;;;;;;11.57;2.13;;;;;;;-1.92;48.00;99879.91;5074188;28;20477;-95
2022/01/26 01:37:07;;;;;;;4.93;2.67;;;;;;;-2.13;48.76;99871.13;5074082;28;20408;-95
2022/01/26 01:39:34;;;;;;;3.07;2.67;;;;;;;-2.09;48.46;99878.00;5074066;28;20491;-94
2022/01/26 01:42:04;;;;;;;6.87;2.63;;;;;;;-2.11;48.41;99878.00;5073836;28;20533;-94
2022/01/26 01:44:30;;;;;;;4.93;2.33;;;;;;;-2.43;48.89;99881.94;5074796;28;20436;-94
2022/01/26 01:46:56;;;;;;;4.53;3.23;;;;;;;-2.53;49.23;99885.25;5073887;28;20422;-95
2022/01/26 01:49:23;;;;;;;6.77;2.87;;;;;;;-2.37;48.67;99876.88;5073785;28;20201;-95
2022/01/26 01:51:53;;;;;;;3.67;2.60;;;;;;;-2.31;48.75;99874.38;5073789;28;20421;-94
2022/01/26 01:54:19;;;;;;;1.70;1.60;;;;;;;-2.26;48.71;99870.16;5073668;28;20912;-94
2022/01/26 01:56:57;;;;;;;2.57;1.67;;;;;;;-2.04;48.52;99874.66;5073608;28;20411;-95
2022/01/26 01:59:26;;;;;;;5.37;3.47;;;;;;;-2.20;48.42;99865.06;5073760;28;20411;-95
2022/01/26 02:01:52;;;;;;;2.67;2.10;;;;;;;-2.14;48.43;99869.41;5073529;28;20414;-94
2022/01/26 02:04:18;;;;;;;2.43;2.23;;;;;;;-1.99;47.97;99865.28;5073808;28;20437;-94
2022/01/26 02:06:43;;;;;;;4.80;2.63;;;;;;;-1.93;47.65;99860.19;5073526;28;20582;-94
2022/01/26 02:09:10;;;;;;;8.17;2.10;;;;;;;-1.86;47.58;99866.22;5073407;28;20236;-95
2022/01/26 02:11:43;;;;;;;10.33;1.77;;;;;;;-1.96;47.31;99859.31;5072745;28;20176;-94
2022/01/26 02:14:16;;;;;;;2.00;1.27;;;;;;;-2.08;47.82;99852.38;5073438;28;20423;-95
2022/01/26 02:16:51;;;;;;;4.17;2.97;;;;;;;-2.11;47.45;99857.47;5073384;28;20889;-94
2022/01/26 02:49:18;;;;;;;3.60;1.80;;;;;;;-2.38;47.88;99870.00;5074339;28;20471;-94
2022/01/26 02:52:19;;;;;;;4.47;2.40;;;;;;;-2.32;47.89;99840.97;5073774;28;20423;-94
2022/01/26 02:54:55;;;;;;;2.83;1.63;;;;;;;-2.35;47.57;99849.50;5073748;28;20400;-94
2022/01/26 03:00:22;;;;;;;3.70;2.23;;;;;;;-2.15;47.47;99840.28;5073956;28;20406;-93
2022/01/26 03:02:56;;;;;;;2.97;2.23;;;;;;;-1.93;46.52;99828.50;5073687;28;20392;-94
2022/01/26 03:05:27;;;;;;;6.80;2.43;;;;;;;-1.86;46.73;99831.13;5072744;28;20743;-94
2022/01/26 03:08:00;;;;;;;2.67;2.17;;;;;;;-1.94;46.31;99834.50;5072428;28;20524;-94
2022/01/26 03:13:04;;;;;;;2.30;1.80;;;;;;;-1.94;46.20;99837.91;5073405;28;20830;-94
2022/01/26 03:15:36;;;;;;;2.00;1.33;;;;;;;-1.89;45.97;99825.97;5072834;28;20399;-94
2022/01/26 03:20:29;;;;;;;1.73;1.37;;;;;;;-1.83;45.56;99824.31;5073629;28;20954;-95
2022/01/26 03:28:40;;;;;;;3.07;1.80;;;;;;;-2.09;45.19;99831.78;5077967;28;20470;-94
2022/01/26 03:34:00;;;;;;;4.53;2.40;;;;;;;-1.95;45.47;99815.66;5077931;28;20810;-95
2022/01/26 03:36:32;;;;;;;3.13;1.60;;;;;;;-1.97;45.01;99827.63;5076364;28;20399;-95
2022/01/26 03:39:07;;;;;;;3.17;2.00;;;;;;;-2.05;45.23;99820.72;5076350;28;20403;-93
2022/01/26 03:41:39;;;;;;;3.07;2.80;;;;;;;-1.84;44.96;99820.88;5076177;28;20438;-94
2022/01/26 03:44:07;;;;;;;7.13;2.30;;;;;;;-1.83;44.61;99819.19;5076127;28;20487;-94
2022/01/26 03:46:33;;;;;;;1.63;1.37;;;;;;;-1.87;44.92;99808.00;5076193;28;20454;-94
2022/01/26 03:48:58;;;;;;;2.40;2.20;;;;;;;-2.02;45.16;99816.44;5075943;28;20451;-94
2022/01/26 03:51:24;;;;;;;6.80;1.27;;;;;;;-2.15;44.59;99812.03;5076265;28;20426;-94
2022/01/26 03:53:49;;;;;;;5.73;1.47;;;;;;;-2.05;44.61;99802.72;5075929;28;20264;-94
2022/01/26 03:56:15;;;;;;;0.97;0.83;;;;;;;-1.97;44.65;99806.22;5076174;28;20192;-94
2022/01/26 03:58:42;;;;;;;4.70;1.20;;;;;;;-2.06;44.82;99812.13;5075908;28;20623;-94
2022/01/26 04:01:07;;;;;;;1.20;1.10;;;;;;;-1.73;44.48;99808.94;5076040;28;20173;-94
2022/01/26 04:03:33;;;;;;;3.43;2.63;;;;;;;-1.91;44.47;99814.81;5075768;28;20773;-93
2022/01/26 04:05:58;;;;;;;4.80;2.27;;;;;;;-1.74;44.12;99806.38;5075761;28;20643;-94
2022/01/26 04:08:28;;;;;;;4.53;2.90;;;;;;;-1.53;43.92;99809.09;5075650;28;20204;-92
2022/01/26 04:13:29;;;;;;;1.50;1.30;;;;;;;-1.34;43.75;99810.94;5077098;28;20466;-94
2022/01/26 04:15:55;;;;;;;4.63;1.77;;;;;;;-1.26;43.22;99806.72;5075701;28;20473;-94
2022/01/26 04:18:27;;;;;;;2.80;2.60;;;;;;;-1.15;43.10;99815.31;5075539;28;20178;-93
2022/01/26 04:20:56;;;;;;;7.83;2.40;;;;;;;-1.03;42.94;99802.53;5075552;28;20259;-94
2022/01/26 04:23:33;;;;;;;10.60;2.73;;;;;;;-0.98;42.58;99800.84;5075435;28;20415;-93
2022/01/26 04:25:59;;;;;;;3.23;2.27;;;;;;;-0.88;42.48;99807.72;5075416;28;20430;-94
2022/01/26 04:28:35;;;;;;;2.43;1.90;;;;;;;-0.80;42.50;99810.31;5075247;28;20447;-93
2022/01/26 04:31:00;;;;;;;3.70;2.33;;;;;;;-0.82;42.52;99802.63;5075370;28;20277;-94
2022/01/26 04:33:26;;;;;;;4.90;2.97;;;;;;;-0.87;42.46;99799.16;5075328;28;20433;-94
2022/01/26 04:35:52;;;;;;;4.43;2.63;;;;;;;-0.94;42.31;99797.41;5075321;28;20169;-93
2022/01/26 04:38:32;;;;;;;6.37;2.77;;;;;;;-0.90;42.60;99798.28;5075264;28;20169;-94
2022/01/26 04:43:44;;;;;;;4.90;2.83;;;;;;;-0.84;42.70;99801.72;5076332;28;20487;-95
2022/01/26 04:46:10;;;;;;;7.10;2.07;;;;;;;-0.72;42.73;99800.91;5076328;28;20427;-93
2022/01/26 04:48:35;;;;;;;7.90;2.30;;;;;;;-0.70;42.97;99791.47;5074942;28;20458;-94
2022/01/26 04:51:01;;;;;;;26.67;3.10;;;;;;;-0.72;41.93;99794.06;5075032;28;20173;-94
2022/01/26 04:53:26;;;;;;;11.77;2.83;;;;;;;-0.69;42.60;99798.34;5074993;28;20177;-94
2022/01/26 04:55:52;;;;;;;3.80;1.93;;;;;;;-0.64;42.61;99799.22;5074918;28;20196;-94
2022/01/26 04:58:18;;;;;;;3.67;2.20;;;;;;;-0.67;43.04;99802.66;5074972;28;20195;-94
2022/01/26 05:00:44;;;;;;;8.73;3.30;;;;;;;-0.58;42.98;99803.53;5074915;28;20239;-94
2022/01/26 05:03:09;;;;;;;6.77;2.90;;;;;;;-0.60;42.92;99800.09;5074802;28;20424;-95
2022/01/26 05:05:35;;;;;;;2.33;2.00;;;;;;;-0.65;43.34;99794.91;5074783;28;20201;-94
2022/01/26 05:08:01;;;;;;;3.17;1.67;;;;;;;-0.66;43.44;99794.09;5074657;28;20225;-94
2022/01/26 05:10:27;;;;;;;4.53;1.77;;;;;;;-0.58;43.31;99793.25;5075620;28;20180;-94
2022/01/26 05:12:52;;;;;;;7.70;3.00;;;;;;;-0.50;43.28;99796.69;5074574;28;20700;-95
2022/01/26 05:15:21;;;;;;;4.70;3.17;;;;;;;-0.47;43.17;99794.13;5074646;28;20411;-93
2022/01/26 05:17:47;;;;;;;5.00;2.07;;;;;;;-0.41;42.70;99788.97;5075093;28;20201;-94
2022/01/26 05:20:13;;;;;;;4.70;2.10;;;;;;;-0.34;42.58;99793.28;5074411;28;20920;-94
2022/01/26 05:22:40;;;;;;;6.27;2.43;;;;;;;-0.45;42.85;99800.13;5074418;28;20633;-93
2022/01/26 05:25:06;;;;;;;13.70;3.63;;;;;;;-0.45;42.88;99797.56;5074310;28;20177;-94
2022/01/26 05:27:32;;;;;;;5.40;4.13;;;;;;;-0.42;43.40;99800.97;5074249;28;20451;-93
2022/01/26 05:29:59;;;;;;;9.00;3.73;;;;;;;-0.37;44.30;99806.16;5074214;28;20422;-93
2022/01/26 05:32:25;;;;;;;5.40;2.33;;;;;;;-0.34;43.99;99807.00;5074211;28;20173;-93
2022/01/26 05:34:50;;;;;;;6.07;3.63;;;;;;;-0.50;43.75;99807.00;5074110;28;20407;-94
2022/01/26 05:37:16;;;;;;;6.07;3.70;;;;;;;-0.39;43.27;99810.44;5074031;28;20511;-94
2022/01/26 05:39:41;;;;;;;4.67;2.70;;;;;;;-0.32;43.31;99805.31;5073966;28;20185;-94
2022/01/26 05:42:07;;;;;;;2.87;2.07;;;;;;;-0.27;42.98;99805.31;5073863;28;20193;-94
2022/01/26 05:44:33;;;;;;;3.07;2.47;;;;;;;-0.14;43.49;99802.75;5074111;28;20235;-93
2022/01/26 05:46:59;;;;;;;11.87;3.30;;;;;;;-0.10;42.80;99808.75;5073884;28;20186;-93
2022/01/26 05:49:26;;;;;;;3.67;2.20;;;;;;;-0.11;42.45;99800.19;5074010;28;20447;-94
2022/01/26 05:51:52;;;;;;;2.83;1.60;;;;;;;-0.28;41.96;99807.03;5073870;28;20450;-94
2022/01/26 05:54:18;;;;;;;2.47;1.47;;;;;;;-0.29;41.71;99809.59;5074096;28;20256;-94
2022/01/26 05:56:47;;;;;;;3.37;1.33;;;;;;;-0.23;41.89;99804.44;5073698;28;20996;-94
2022/01/26 05:59:21;;;;;;;1.83;1.53;;;;;;;-0.44;41.39;99817.28;5073681;28;20701;-94
2022/01/26 06:01:48;;;;;;;2.93;2.30;;;;;;;-0.55;41.31;99806.13;5073702;28;20544;-93
2022/01/26 06:04:13;;;;;;;2.17;1.70;;;;;;;-0.67;41.66;99830.09;5073629;28;20912;-94
2022/01/26 06:06:39;;;;;;;5.13;1.47;;;;;;;-0.60;41.88;99824.09;5073495;28;20489;-94
2022/01/26 06:09:05;;;;;;;4.30;2.07;;;;;;;-0.60;41.31;99824.09;5073886;28;20657;-93
2022/01/26 06:11:30;;;;;;;5.30;3.37;;;;;;;-0.57;41.36;99830.97;5074088;28;20192;-93
2022/01/26 06:13:55;;;;;;;6.57;4.20;;;;;;;-0.67;41.66;99825.81;5073643;28;20227;-94
2022/01/26 06:16:22;;;;;;;3.23;2.90;;;;;;;-0.76;41.88;99838.66;5073208;28;20205;-93
2022/01/26 06:18:48;;;;;;;2.93;1.60;;;;;;;-0.97;42.00;99823.09;5073345;28;20192;-94
2022/01/26 06:21:13;;;;;;;10.50;2.80;;;;;;;-1.07;41.93;99830.78;5073539;28;20452;-94
2022/01/26 06:23:39;;;;;;;5.10;2.50;;;;;;;-0.82;42.50;99833.50;5073235;28;20189;-94
2022/01/26 06:26:04;;;;;;;3.00;2.37;;;;;;;-0.63;42.84;99835.25;5073232;28;20181;-94
2022/01/26 06:28:30;;;;;;;5.87;2.63;;;;;;;-0.48;42.60;99825.88;5073090;28;20209;-94
2022/01/26 06:31:02;;;;;;;6.20;3.27;;;;;;;-0.33;43.23;99831.03;5074115;28;20180;-94
2022/01/26 06:33:29;;;;;;;6.20;3.83;;;;;;;-0.13;43.46;99837.13;5073221;28;20511;-94
2022/01/26 06:35:56;;;;;;;3.80;2.60;;;;;;;-0.03;43.58;99831.94;5073033;28;20791;-94
2022/01/26 06:38:24;;;;;;;19.60;7.37;;;;;;;0.02;44.22;99829.38;5073138;28;20419;-94
2022/01/26 06:40:51;;;;;;;13.37;6.10;;;;;;;0.12;43.74;99827.66;5072829;28;20493;-93
2022/01/26 06:43:16;;;;;;;15.00;4.10;;;;;;;0.22;44.30;99830.25;5073362;28;20446;-94
2022/01/26 06:45:48;;;;;;;12.23;4.57;;;;;;;0.33;43.97;99825.09;5072975;28;20435;-94
2022/01/26 06:50:40;;;;;;;12.50;4.30;;;;;;;0.35;43.89;99828.50;5073670;28;20428;-95
2022/01/26 06:53:05;;;;;;;7.37;3.00;;;;;;;0.43;43.90;99830.22;5072810;28;20526;-94
2022/01/26 06:55:31;;;;;;;6.50;4.10;;;;;;;0.54;42.72;99830.22;5072950;28;20431;-93
2022/01/26 06:57:56;;;;;;;8.53;3.93;;;;;;;0.67;42.58;99828.47;5072254;28;20624;-94
2022/01/26 07:00:22;;;;;;;6.60;3.90;;;;;;;0.76;42.68;99831.88;5072735;28;20182;-92
2022/01/26 07:02:47;;;;;;;6.83;3.73;;;;;;;0.72;42.61;99834.47;5072867;28;20182;-93
2022/01/26 07:05:13;;;;;;;10.83;4.37;;;;;;;0.73;42.61;99828.47;5072620;28;20544;-93
2022/01/26 07:07:40;;;;;;;4.83;3.03;;;;;;;0.70;42.72;99831.06;5072475;28;20211;-93
2022/01/26 07:10:06;;;;;;;3.33;2.27;;;;;;;0.79;42.36;99842.19;5072686;28;20544;-94
2022/01/26 07:12:32;;;;;;;7.87;4.40;;;;;;;0.91;42.23;99834.44;5072391;28;20418;-93
2022/01/26 07:22:54;;;;;;;8.67;3.30;;;;;;;1.28;41.69;99826.56;5073223;28;20468;-92
2022/01/26 07:25:20;;;;;;;4.63;3.37;;;;;;;1.40;41.86;99829.09;5072422;28;20847;-91
2022/01/26 07:27:46;;;;;;;10.33;4.30;;;;;;;1.51;41.27;99816.97;5072111;28;20673;-92
2022/01/26 07:30:14;;;;;;;8.23;3.37;;;;;;;1.57;40.54;99815.19;5072090;28;20183;-92
2022/01/26 07:32:39;;;;;;;8.67;3.47;;;;;;;1.61;40.87;99819.50;5073735;28;20345;-92
2022/01/26 07:35:05;;;;;;;5.13;2.53;;;;;;;1.77;41.68;99815.09;5072823;28;20936;-91
2022/01/26 07:37:31;;;;;;;5.57;2.67;;;;;;;1.86;40.85;99810.72;5073052;28;20617;-92
2022/01/26 07:40:04;;;;;;;4.17;2.43;;;;;;;2.00;41.01;99802.88;5071835;28;20176;-91
2022/01/26 07:42:31;;;;;;;9.77;3.77;;;;;;;2.11;41.14;99813.13;5072704;28;20197;-90
2022/01/26 07:44:56;;;;;;;7.00;2.77;;;;;;;2.22;40.66;99819.94;5071751;28;20418;-91
2022/01/26 07:47:23;;;;;;;5.87;3.30;;;;;;;2.18;40.34;99822.53;5071999;28;20558;-91
2022/01/26 07:49:50;;;;;;;4.87;2.77;;;;;;;2.26;39.97;99810.41;5071771;28;20188;-91
2022/01/26 07:52:15;;;;;;;3.00;1.90;;;;;;;2.14;39.59;99816.56;5072640;28;20544;-91
2022/01/26 07:54:41;;;;;;;9.20;3.10;;;;;;;2.17;39.49;99815.66;5073147;28;20191;-89
2022/01/26 07:57:07;;;;;;;2.37;1.20;;;;;;;2.22;39.15;99814.78;5072510;28;20195;-90
2022/01/26 07:59:33;;;;;;;6.10;1.63;;;;;;;2.18;39.83;99812.19;5072520;28;20187;-90
2022/01/26 08:01:58;;;;;;;3.23;2.07;;;;;;;2.22;39.65;99809.59;5072474;28;20410;-89
2022/01/26 08:04:24;;;;;;;6.43;1.73;;;;;;;2.21;40.04;99815.63;5072455;28;20180;-90
2022/01/26 08:06:50;;;;;;;10.50;2.70;;;;;;;2.34;39.58;99824.13;5072422;28;20219;-90
2022/01/26 08:09:16;;;;;;;12.10;2.10;;;;;;;2.34;40.14;99818.97;5074337;28;20625;-89
2022/01/26 08:11:42;;;;;;;6.83;3.10;;;;;;;2.35;40.07;99824.13;5075994;28;20264;-90
2022/01/26 08:14:08;;;;;;;7.97;3.53;;;;;;;2.43;39.85;99821.47;5075948;28;20645;-89
2022/01/26 08:16:34;;;;;;;2.63;1.80;;;;;;;2.40;40.38;99821.50;5075921;28;20169;-88
2022/01/26 08:18:59;;;;;;;6.70;2.07;;;;;;;2.29;40.08;99820.72;5076120;28;20173;-88
2022/01/26 08:21:25;;;;;;;8.53;3.53;;;;;;;2.32;39.75;99815.53;5074831;28;20185;-88
2022/01/26 08:23:50;;;;;;;6.63;3.33;;;;;;;2.22;40.49;99812.19;5075849;28;20740;-88
2022/01/26 08:26:21;;;;;;;4.80;2.07;;;;;;;2.41;40.53;99810.28;5076506;28;20271;-88
2022/01/26 08:28:53;;;;;;;9.07;2.13;;;;;;;2.46;40.84;99811.09;5074716;28;20209;-87
2022/01/26 08:31:18;;;;;;;11.57;3.40;;;;;;;2.54;40.88;99806.72;5075684;28;20218;-89
2022/01/26 08:33:44;;;;;;;5.70;2.60;;;;;;;2.57;40.72;99798.06;5075578;28;20173;-88
2022/01/26 08:36:09;;;;;;;3.13;1.60;;;;;;;2.77;40.92;99801.31;5075549;28;20177;-88
2022/01/26 08:38:35;;;;;;;4.03;2.27;;;;;;;2.70;40.74;99803.09;5075494;28;20184;-89
2022/01/26 08:41:01;;;;;;;5.50;2.13;;;;;;;2.65;41.25;99799.69;5075391;28;20192;-88
2022/01/26 08:43:26;;;;;;;3.50;2.03;;;;;;;2.81;40.50;99805.56;5075410;28;20173;-88
2022/01/26 08:45:52;;;;;;;9.07;3.00;;;;;;;2.90;40.86;99801.16;5075341;28;20173;-88
2022/01/26 08:48:17;;;;;;;5.10;2.47;;;;;;;2.78;40.73;99797.81;5075306;28;20203;-89
2022/01/26 08:50:43;;;;;;;7.53;3.30;;;;;;;2.75;41.19;99803.88;5075537;28;20619;-88
2022/01/26 08:53:09;;;;;;;9.33;2.30;;;;;;;2.78;41.04;99798.69;5075283;28;20603;-88
2022/01/26 08:55:36;;;;;;;2.20;1.53;;;;;;;2.61;41.04;99803.19;5075219;28;20176;-88
2022/01/26 08:58:02;;;;;;;6.33;3.67;;;;;;;2.62;41.36;99799.72;5075450;28;20180;-88
2022/01/26 09:00:28;;;;;;;8.50;2.03;;;;;;;2.56;41.08;99804.97;5075114;28;20196;-88
2022/01/26 09:02:55;;;;;;;5.03;2.60;;;;;;;2.70;41.35;99797.06;5075117;28;20207;-88
2022/01/26 09:05:20;;;;;;;5.10;2.50;;;;;;;2.94;41.28;99802.81;5074034;28;20540;-88
2022/01/26 09:07:49;;;;;;;4.80;2.20;;;;;;;3.14;40.69;99804.34;5075179;28;20693;-88
2022/01/26 09:10:14;;;;;;;9.27;1.97;;;;;;;3.35;40.82;99793.69;5075183;28;20200;-88
2022/01/26 09:12:42;;;;;;;7.50;2.93;;;;;;;3.27;40.11;99796.41;5074779;28;20240;-88
2022/01/26 09:15:10;;;;;;;3.50;2.40;;;;;;;3.26;40.44;99789.50;5073919;28;20267;-87
2022/01/26 09:17:35;;;;;;;3.03;2.07;;;;;;;3.26;41.20;99789.50;5075059;28;20165;-87
2022/01/26 09:20:06;;;;;;;8.53;3.23;;;;;;;3.29;40.99;99793.78;5074223;28;20177;-87
2022/01/26 09:22:32;;;;;;;3.90;2.47;;;;;;;3.42;41.13;99774.59;5074694;28;20177;-87
2022/01/26 09:24:57;;;;;;;9.70;2.07;;;;;;;3.41;41.31;99783.22;5074600;28;20641;-87
2022/01/26 09:27:23;;;;;;;4.97;2.57;;;;;;;3.43;41.06;99779.75;5074565;28;20177;-87
2022/01/26 09:29:49;;;;;;;4.80;1.60;;;;;;;3.65;41.07;99773.41;5074768;28;20169;-87
2022/01/26 09:32:15;;;;;;;9.70;3.10;;;;;;;3.72;41.08;99776.78;5074906;28;20520;-87
2022/01/26 09:34:41;;;;;;;6.90;2.80;;;;;;;3.66;41.22;99776.84;5074414;28;20576;-87
2022/01/26 09:37:10;;;;;;;2.63;1.63;;;;;;;3.57;41.22;99776.97;5074387;28;20181;-86
2022/01/26 09:39:37;;;;;;;6.07;2.80;;;;;;;3.66;41.67;99774.25;5074684;28;20184;-86
2022/01/26 09:42:03;;;;;;;4.30;2.20;;;;;;;3.70;41.33;99770.72;5073266;28;20199;-86
2022/01/26 09:44:31;;;;;;;4.80;2.20;;;;;;;3.90;41.21;99767.84;5074534;28;20180;-86
2022/01/26 09:46:56;;;;;;;5.10;1.80;;;;;;;4.02;41.12;99771.09;5074483;28;20188;-85
2022/01/26 09:49:28;;;;;;;8.60;2.73;;;;;;;4.16;41.79;99769.13;5073077;28;20205;-85
2022/01/26 09:51:54;;;;;;;6.27;1.90;;;;;;;4.14;41.56;99762.25;5074142;28;20244;-86
2022/01/26 09:54:19;;;;;;;7.37;2.90;;;;;;;4.25;40.77;99763.78;5073082;28;20335;-85
2022/01/26 09:56:48;;;;;;;6.47;2.17;;;;;;;4.38;41.10;99751.44;5074060;28;20294;-85
2022/01/26 09:59:15;;;;;;;5.90;2.87;;;;;;;4.51;40.58;99749.50;5073987;28;20165;-85
2022/01/26 10:01:46;;;;;;;6.57;2.50;;;;;;;4.31;41.16;99758.50;5073213;28;20181;-86
2022/01/26 10:04:23;;;;;;;6.67;3.00;;;;;;;4.47;41.20;99751.28;5074195;28;20239;-85
2022/01/26 10:07:15;;;;;;;5.03;1.70;;;;;;;4.48;41.60;99740.00;5074414;28;20610;-85
2022/01/26 10:15:28;;;;;;;3.57;2.00;;;;;;;4.33;41.15;99735.97;5073709;28;20235;-84
2022/01/26 10:18:17;;;;;;;9.43;2.77;;;;;;;4.34;41.97;99740.28;5073933;28;20161;-85
2022/01/26 10:20:48;;;;;;;6.00;3.10;;;;;;;4.28;42.07;99740.38;5072881;28;20252;-84
2022/01/26 10:23:19;;;;;;;8.53;3.30;;;;;;;4.49;41.54;99741.72;5073903;28;20189;-84
2022/01/26 10:25:58;;;;;;;6.93;3.50;;;;;;;4.53;42.27;99737.34;5072576;28;20173;-85
2022/01/26 10:28:23;;;;;;;5.00;2.03;;;;;;;4.53;41.50;99737.34;5073763;28;20247;-85
2022/01/26 10:30:49;;;;;;;4.47;2.93;;;;;;;4.18;41.72;99733.63;5072135;28;20576;-85
2022/01/26 10:33:16;;;;;;;8.43;3.10;;;;;;;4.33;41.79;99733.34;5073004;28;20207;-85
2022/01/26 10:35:42;;;;;;;9.70;4.07;;;;;;;4.16;42.13;99730.22;5073568;28;20184;-86
2022/01/26 10:38:07;;;;;;;5.73;2.10;;;;;;;4.13;41.97;99722.50;5073344;28;20243;-86
2022/01/26 10:40:34;;;;;;;6.37;2.70;;;;;;;4.29;42.52;99721.34;5073567;28;20671;-84
2022/01/26 10:43:13;;;;;;;9.90;2.43;;;;;;;4.24;42.57;99711.94;5073878;28;20161;-84
2022/01/26 10:45:47;;;;;;;11.13;4.40;;;;;;;4.46;42.92;99710.63;5072306;28;20615;-84
2022/01/26 10:48:23;;;;;;;6.17;3.23;;;;;;;4.46;42.59;99707.16;5072289;28;20200;-84
2022/01/26 10:53:48;;;;;;;5.33;2.77;;;;;;;4.61;42.03;99691.31;5036666;28;20221;-85
2022/01/26 10:56:14;;;;;;;9.63;5.07;;;;;;;4.46;42.32;99700.25;5072188;28;20537;-84
2022/01/26 10:58:41;;;;;;;13.63;4.00;;;;;;;4.61;42.04;99688.72;5072101;28;20185;-84
2022/01/26 11:01:06;;;;;;;9.10;4.43;;;;;;;4.17;42.27;99700.78;5073101;28;20302;-85
2022/01/26 11:03:33;;;;;;;5.60;3.43;;;;;;;4.26;43.00;99698.03;5072113;28;20177;-84
2022/01/26 11:06:04;;;;;;;7.73;3.93;;;;;;;4.16;43.53;99687.84;5073054;28;20248;-84
2022/01/26 11:08:30;;;;;;;4.27;2.70;;;;;;;4.16;42.98;99687.84;5072048;28;20235;-84
2022/01/26 11:10:56;;;;;;;13.07;4.13;;;;;;;4.14;43.43;99672.28;5072058;28;20238;-85
2022/01/26 11:13:27;;;;;;;9.33;5.60;;;;;;;4.28;43.66;99687.63;5072959;28;20180;-84
2022/01/26 11:15:53;;;;;;;11.57;5.40;;;;;;;4.42;43.46;99683.03;5073035;28;20498;-84
2022/01/26 11:18:22;;;;;;;14.13;6.23;;;;;;;4.62;42.82;99675.69;5072174;28;20649;-84
2022/01/26 11:20:50;;;;;;;8.57;4.30;;;;;;;4.79;43.00;99664.97;5072902;28;20218;-84
2022/01/26 11:23:32;;;;;;;13.97;6.23;;;;;;;4.54;42.79;99668.94;5073183;28;20264;-84
2022/01/26 11:25:57;;;;;;;13.47;4.40;;;;;;;4.84;43.46;99668.34;5073182;28;20172;-84
2022/01/26 11:28:25;;;;;;;8.73;4.23;;;;;;;4.83;43.18;99653.63;5071835;28;20197;-83
2022/01/26 11:30:52;;;;;;;6.93;3.50;;;;;;;5.05;42.88;99661.81;5072806;28;20169;-84
2022/01/26 11:33:23;;;;;;;9.10;3.83;;;;;;;5.09;43.34;99651.31;5071742;28;20195;-83
2022/01/26 11:35:50;;;;;;;9.17;3.20;;;;;;;4.89;43.23;99648.31;5073111;28;20622;-86
2022/01/26 11:46:54;;;;;;;8.67;2.57;;;;;;;4.85;43.68;99651.84;5076572;28;20184;-85
2022/01/26 11:49:33;;;;;;;4.60;3.10;;;;;;;4.58;43.72;99649.84;5076512;28;20196;-84
2022/01/26 11:51:58;;;;;;;11.17;3.90;;;;;;;4.61;44.23;99644.59;5077066;28;20173;-84
2022/01/26 11:54:28;;;;;;;5.10;2.00;;;;;;;4.77;43.41;99636.44;5076423;28;20177;-85
2022/01/26 11:57:06;;;;;;;5.77;3.23;;;;;;;4.72;43.58;99642.59;5075449;28;20173;-84
2022/01/26 11:59:34;;;;;;;6.20;3.00;;;;;;;4.41;44.42;99647.56;5076547;28;20230;-85
2022/01/26 12:02:19;;;;;;;5.10;3.03;;;;;;;4.25;45.17;99649.63;5076511;28;20238;-84
2022/01/26 12:04:55;;;;;;;13.37;3.33;;;;;;;4.37;45.15;99639.88;5076496;28;20161;-84
2022/01/26 12:07:25;;;;;;;7.33;4.27;;;;;;;4.32;45.12;99651.19;5075103;28;20585;-84
2022/01/26 12:09:51;;;;;;;11.30;4.40;;;;;;;4.61;44.86;99639.41;5076078;28;20207;-85
2022/01/26 12:12:21;;;;;;;5.63;2.70;;;;;;;4.80;44.83;99630.31;5076334;28;20169;-84
2022/01/26 12:15:08;;;;;;;10.07;3.53;;;;;;;5.00;44.62;99625.56;5076280;28;20177;-84
2022/01/26 12:17:39;;;;;;;8.03;2.63;;;;;;;5.04;44.20;99627.19;5076562;28;20157;-85
2022/01/26 12:41:15;;;;;;;8.47;3.23;;;;;;;5.19;44.82;99611.25;5075576;28;20173;-86
2022/01/26 12:42:13;;;;;;;6.27;3.30;;;;;;;5.36;44.66;99614.31;5076105;28;20234;-85
2022/01/26 12:44:39;;;;;;;4.13;2.63;;;;;;;5.44;44.42;99609.78;5074534;28;20185;-85
2022/01/26 12:47:05;;;;;;;9.57;3.90;;;;;;;5.55;45.02;99609.53;5074731;28;20190;-84
2022/01/26 12:49:31;;;;;;;6.77;3.70;;;;;;;5.86;44.87;99609.63;5075217;28;20204;-85
2022/01/26 12:51:57;;;;;;;12.20;4.20;;;;;;;6.06;43.48;99609.94;5074425;28;20525;-85
2022/01/26 12:54:24;;;;;;;8.57;3.73;;;;;;;5.83;44.07;99613.13;5073494;28;20597;-85
2022/01/26 12:56:50;;;;;;;9.97;4.30;;;;;;;5.79;44.32;99611.47;5074248;28;20696;-84
2022/01/26 12:59:21;;;;;;;7.87;4.00;;;;;;;5.75;43.75;99607.25;5074256;28;20263;-84
2022/01/26 13:01:51;;;;;;;9.03;4.57;;;;;;;5.86;43.89;99604.41;5074367;28;20169;-84
2022/01/26 13:04:17;;;;;;;5.43;3.17;;;;;;;5.80;43.69;99610.59;5075136;28;20606;-85
2022/01/26 13:06:51;;;;;;;4.37;2.30;;;;;;;5.77;43.47;99607.22;5074157;28;20179;-86
2022/01/26 13:09:21;;;;;;;10.73;4.23;;;;;;;5.77;43.72;99602.88;5074950;28;20199;-84
2022/01/26 13:11:49;;;;;;;8.07;2.73;;;;;;;5.74;44.58;99605.53;5074966;28;20173;-85
2022/01/26 13:14:32;;;;;;;7.37;3.53;;;;;;;5.54;44.37;99611.25;5074894;28;20708;-84
2022/01/26 13:20:24;;;;;;;5.80;3.77;;;;;;;5.87;43.89;99614.78;5075141;28;20179;-85
2022/01/26 13:29:22;;;;;;;7.63;4.47;;;;;;;5.84;44.90;99600.97;5074686;28;20268;-84
2022/01/26 13:37:03;;;;;;;6.10;3.63;;;;;;;5.77;44.85;99609.81;5075420;28;20174;-84
2022/01/26 13:40:12;;;;;;;5.60;3.33;;;;;;;5.77;45.57;99608.06;5074739;28;20153;-84
2022/01/26 13:50:42;;;;;;;13.93;4.20;;;;;;;5.99;45.68;99617.06;5074514;28;20176;-84
2022/01/26 13:53:10;;;;;;;17.60;4.00;;;;;;;6.04;45.65;99606.53;5073853;28;20203;-84
2022/01/26 13:55:56;;;;;;;5.70;3.53;;;;;;;5.96;45.47;99618.88;5074144;28;20600;-85
2022/01/26 14:01:02;;;;;;;10.17;4.43;;;;;;;5.94;45.86;99621.53;5074860;28;20625;-85
2022/01/26 14:03:30;;;;;;;9.93;4.83;;;;;;;6.25;45.32;99605.94;5073952;28;20161;-84
2022/01/26 14:05:56;;;;;;;7.53;4.67;;;;;;;6.36;45.13;99613.47;5073792;28;20240;-84
2022/01/26 14:08:22;;;;;;;13.17;4.47;;;;;;;6.44;44.74;99612.38;5073089;28;20280;-84
2022/01/26 14:10:49;;;;;;;14.17;5.43;;;;;;;6.31;45.13;99620.56;5072826;28;20279;-84
2022/01/26 14:13:19;;;;;;;6.60;3.03;;;;;;;6.02;45.39;99624.81;5072809;28;20190;-84
2022/01/26 14:15:47;;;;;;;8.27;4.70;;;;;;;6.01;45.94;99611.81;5074372;28;20170;-84
2022/01/26 14:18:41;;;;;;;10.60;5.60;;;;;;;6.29;45.60;99607.56;5073909;28;20176;-84